createdAt,value
2023-02-05T00:01:25.237Z,-1.03
2023-02-05T00:03:51.888Z,-1.23
2023-02-05T00:06:18.704Z,-1.28
2023-02-05T00:08:45.380Z,-1.15
2023-02-05T00:11:12.310Z,-1.28
2023-02-05T00:13:40.756Z,-1.41
2023-02-05T00:16:13.687Z,-1.43
2023-02-05T00:18:40.423Z,-1.33
2023-02-05T00:21:07.990Z,-1.44
2023-02-05T00:23:35.303Z,-1.60
2023-02-05T00:26:02.832Z,-1.65
2023-02-05T00:28:32.854Z,-1.55
2023-02-05T00:31:00.634Z,-1.71
2023-02-05T00:33:27.502Z,-1.82
2023-02-05T00:35:54.252Z,-1.89
2023-02-05T00:38:20.948Z,-1.88
2023-02-05T00:43:27.226Z,-1.91
2023-02-05T00:45:53.957Z,-1.80
2023-02-05T00:48:20.683Z,-1.80
2023-02-05T00:50:51.387Z,-1.95
2023-02-05T00:56:58.319Z,-2.09
2023-02-05T00:59:25.018Z,-2.28
2023-02-05T01:01:51.798Z,-2.34
2023-02-05T01:04:18.509Z,-2.32
2023-02-05T01:06:45.243Z,-2.21
2023-02-05T01:09:11.882Z,-2.41
2023-02-05T01:11:38.524Z,-2.40
2023-02-05T01:14:05.143Z,-2.19
2023-02-05T01:16:31.850Z,-2.39
2023-02-05T01:18:59.062Z,-2.29
2023-02-05T01:21:25.715Z,-2.40
2023-02-05T01:23:52.475Z,-2.30
2023-02-05T01:26:19.119Z,-2.36
2023-02-05T01:28:58.947Z,-2.35
2023-02-05T01:31:28.225Z,-2.38
2023-02-05T01:33:55.273Z,-2.36
2023-02-05T01:36:21.974Z,-2.41
2023-02-05T01:38:49.012Z,-2.08
2023-02-05T01:41:16.024Z,-2.05
2023-02-05T01:43:42.657Z,-2.09
2023-02-05T01:46:37.122Z,-2.12
2023-02-05T01:49:05.987Z,-2.18
2023-02-05T01:51:35.875Z,-2.22
2023-02-05T01:54:02.793Z,-2.21
2023-02-05T01:56:38.293Z,-2.27
2023-02-05T01:59:12.122Z,-2.33
2023-02-05T02:01:41.148Z,-2.32
2023-02-05T02:04:08.776Z,-2.41
2023-02-05T02:06:36.799Z,-2.43
2023-02-05T02:09:06.518Z,-2.34
2023-02-05T02:11:36.455Z,-2.43
2023-02-05T02:14:06.980Z,-2.33
2023-02-05T02:16:36.701Z,-2.26
2023-02-05T02:19:11.064Z,-2.38
2023-02-05T02:22:02.769Z,-2.47
2023-02-05T02:24:54.185Z,-2.49
2023-02-05T02:27:38.060Z,-2.25
2023-02-05T02:30:14.288Z,-2.22
2023-02-05T02:32:49.535Z,-2.31
2023-02-05T02:35:23.242Z,-2.37
2023-02-05T02:38:14.277Z,-2.46
2023-02-05T02:41:00.782Z,-2.24
2023-02-05T02:44:05.088Z,-2.19
2023-02-05T02:46:42.660Z,-2.35
2023-02-05T02:49:16.420Z,-2.42
2023-02-05T02:51:44.286Z,-2.50
2023-02-05T02:54:16.103Z,-2.62
2023-02-05T02:56:44.749Z,-2.59
2023-02-05T02:59:18.003Z,-2.34
2023-02-05T03:01:53.758Z,-2.20
2023-02-05T03:04:35.503Z,-2.47
2023-02-05T03:07:13.665Z,-2.44
2023-02-05T03:09:49.359Z,-2.49
2023-02-05T03:12:16.260Z,-2.64
2023-02-05T03:14:43.128Z,-2.25
2023-02-05T03:17:09.808Z,-2.35
2023-02-05T03:19:36.689Z,-2.50
2023-02-05T03:22:06.364Z,-2.60
2023-02-05T03:24:33.109Z,-2.68
2023-02-05T03:26:59.812Z,-2.59
2023-02-05T03:29:31.018Z,-2.54
2023-02-05T03:35:19.569Z,-2.31
2023-02-05T03:40:47.766Z,-2.37
2023-02-05T03:43:21.553Z,-2.47
2023-02-05T03:46:20.410Z,-2.45
2023-02-05T03:48:52.822Z,-2.48
2023-02-05T03:51:38.043Z,-2.55
2023-02-05T03:54:08.224Z,-2.50
2023-02-05T03:56:59.442Z,-2.58
2023-02-05T03:59:27.794Z,-2.64
2023-02-05T04:01:55.214Z,-2.68
2023-02-05T04:04:22.135Z,-2.74
2023-02-05T04:06:51.611Z,-2.66
2023-02-05T04:09:18.221Z,-2.64
2023-02-05T04:13:21.459Z,-2.75
2023-02-05T04:15:49.577Z,-2.81
2023-02-05T04:18:16.641Z,-2.76
2023-02-05T04:20:43.940Z,-2.27
2023-02-05T04:23:11.373Z,-2.06
2023-02-05T04:25:39.218Z,-2.15
2023-02-05T04:28:06.990Z,-2.01
2023-02-05T04:30:33.976Z,-2.02
2023-02-05T04:33:00.730Z,-2.05
2023-02-05T04:35:27.444Z,-1.95
2023-02-05T04:37:54.093Z,-2.08
2023-02-05T04:40:20.720Z,-2.08
2023-02-05T04:42:47.358Z,-2.15
2023-02-05T04:45:14.051Z,-2.32
2023-02-05T04:47:40.746Z,-2.30
2023-02-05T04:50:07.828Z,-2.27
2023-02-05T04:52:34.468Z,-2.41
2023-02-05T04:55:01.123Z,-2.53
2023-02-05T04:57:29.609Z,-2.50
2023-02-05T04:59:56.248Z,-2.58
2023-02-05T05:05:13.694Z,-2.52
2023-02-05T05:07:40.410Z,-2.21
2023-02-05T05:10:08.202Z,-2.44
2023-02-05T05:12:36.019Z,-2.60
2023-02-05T05:15:16.817Z,-2.37
2023-02-05T05:17:43.412Z,-2.55
2023-02-05T05:20:10.805Z,-2.68
2023-02-05T05:22:37.523Z,-2.84
2023-02-05T05:26:31.465Z,-2.72
2023-02-05T05:28:58.270Z,-2.97
2023-02-05T05:31:25.212Z,-2.84
2023-02-05T05:33:52.226Z,-2.56
2023-02-05T05:36:19.640Z,-2.79
2023-02-05T05:38:46.338Z,-2.84
2023-02-05T05:41:42.737Z,-2.80
2023-02-05T05:44:10.060Z,-3.01
2023-02-05T05:46:37.101Z,-3.16
2023-02-05T05:49:04.452Z,-3.24
2023-02-05T05:51:32.806Z,-3.06
2023-02-05T05:55:46.859Z,-3.13
2023-02-05T05:58:14.042Z,-3.43
2023-02-05T06:00:41.446Z,-3.52
2023-02-05T06:03:10.455Z,-3.61
2023-02-05T06:05:37.192Z,-3.68
2023-02-05T06:08:04.442Z,-3.62
2023-02-05T06:10:32.996Z,-3.64
2023-02-05T06:13:00.667Z,-3.74
2023-02-05T06:15:27.304Z,-3.71
2023-02-05T06:17:54.241Z,-3.62
2023-02-05T06:20:20.948Z,-3.69
2023-02-05T06:25:26.261Z,-3.80
2023-02-05T06:27:52.989Z,-3.81
2023-02-05T06:30:19.827Z,-3.81
2023-02-05T06:32:46.465Z,-3.78
2023-02-05T06:35:13.161Z,-3.79
2023-02-05T06:37:47.036Z,-3.87
2023-02-05T06:40:18.111Z,-3.85
2023-02-05T06:43:57.213Z,-3.84
2023-02-05T06:46:23.877Z,-3.84
2023-02-05T06:48:50.468Z,-3.81
2023-02-05T06:51:17.347Z,-3.76
2023-02-05T06:53:43.956Z,-3.75
2023-02-05T06:56:10.615Z,-3.90
2023-02-05T06:58:37.311Z,-4.05
2023-02-05T07:01:04.058Z,-4.08
2023-02-05T07:03:30.692Z,-4.01
2023-02-05T07:06:05.042Z,-4.00
2023-02-05T07:08:31.876Z,-3.96
2023-02-05T07:10:58.728Z,-3.44
2023-02-05T07:13:25.746Z,-2.64
2023-02-05T07:15:52.431Z,-2.37
2023-02-05T07:18:19.066Z,-1.98
2023-02-05T07:20:45.848Z,-1.55
2023-02-05T07:23:12.532Z,-1.24
2023-02-05T07:25:39.193Z,-1.08
2023-02-05T07:28:07.457Z,-0.96
2023-02-05T07:30:35.832Z,-0.90
2023-02-05T07:33:03.713Z,-0.76
2023-02-05T07:35:32.368Z,-0.87
2023-02-05T07:37:59.498Z,-1.24
2023-02-05T07:40:26.485Z,-1.67
2023-02-05T07:45:32.559Z,-1.61
2023-02-05T07:50:26.866Z,-1.57
2023-02-05T07:55:40.983Z,-1.06
2023-02-05T07:58:07.581Z,-1.10
2023-02-05T08:01:25.347Z,-1.29
2023-02-05T08:03:52.025Z,-1.23
2023-02-05T08:08:57.482Z,-1.23
2023-02-05T08:11:24.135Z,-1.00
2023-02-05T08:16:30.507Z,-0.79
2023-02-05T08:18:57.216Z,-0.94
2023-02-05T08:21:23.952Z,-0.79
2023-02-05T08:23:50.814Z,-0.80
2023-02-05T08:26:18.546Z,-0.87
2023-02-05T08:28:46.084Z,-1.10
2023-02-05T08:31:15.886Z,-1.07
2023-02-05T08:33:42.521Z,-0.80
2023-02-05T08:36:09.832Z,-0.48
2023-02-05T08:38:36.865Z,-0.66
2023-02-05T08:41:14.426Z,-0.59
2023-02-05T08:43:46.064Z,-0.51
2023-02-05T08:46:15.250Z,-0.59
2023-02-05T08:51:23.123Z,-0.41
2023-02-05T08:53:50.020Z,-0.43
2023-02-05T08:56:19.875Z,-0.40
2023-02-05T08:58:46.842Z,-0.30
2023-02-05T09:01:17.147Z,-0.32
2023-02-05T09:03:44.844Z,-0.54
2023-02-05T09:06:13.988Z,-0.36
2023-02-05T09:08:40.852Z,-0.53
2023-02-05T09:11:08.014Z,-0.47
2023-02-05T09:13:35.292Z,-0.40
2023-02-05T09:16:01.979Z,-0.41
2023-02-05T09:18:28.660Z,-0.28
2023-02-05T09:20:55.364Z,-0.08
2023-02-05T09:23:22.138Z,-0.05
2023-02-05T09:25:49.313Z,-0.44
2023-02-05T09:30:55.958Z,-0.89
2023-02-05T09:33:22.680Z,-0.75
2023-02-05T09:35:49.344Z,-0.82
2023-02-05T09:38:17.915Z,-0.46
2023-02-05T09:40:59.573Z,-0.48
2023-02-05T09:43:38.339Z,-0.23
2023-02-05T09:46:42.124Z,-0.23
2023-02-05T09:49:19.966Z,-0.28
2023-02-05T09:51:53.125Z,0.05
2023-02-05T09:54:36.217Z,0.10
2023-02-05T09:57:10.717Z,0.16
2023-02-05T09:59:39.943Z,-0.05
2023-02-05T10:02:28.506Z,-0.20
2023-02-05T10:05:16.534Z,0.41
2023-02-05T10:07:55.052Z,0.29
2023-02-05T10:10:31.879Z,0.11
2023-02-05T10:13:25.558Z,-0.05
2023-02-05T10:16:23.442Z,-0.03
2023-02-05T10:19:17.787Z,-0.40
2023-02-05T10:22:23.098Z,0.18
2023-02-05T10:25:01.818Z,0.41
2023-02-05T10:27:43.347Z,0.62
2023-02-05T10:30:30.732Z,0.79
2023-02-05T10:33:07.559Z,0.47
2023-02-05T10:35:49.886Z,0.47
2023-02-05T10:38:23.174Z,0.36
2023-02-05T10:40:53.202Z,0.11
2023-02-05T10:43:26.699Z,0.17
2023-02-05T10:45:55.236Z,0.26
2023-02-05T10:48:36.900Z,0.36
2023-02-05T10:51:15.090Z,0.88
2023-02-05T10:53:42.306Z,0.57
2023-02-05T10:56:14.769Z,0.68
2023-02-05T10:59:02.647Z,0.86
2023-02-05T11:01:37.090Z,0.75
2023-02-05T11:04:07.538Z,0.50
2023-02-05T11:06:45.921Z,0.66
2023-02-05T11:09:29.696Z,0.92
2023-02-05T11:11:58.041Z,1.02
2023-02-05T11:14:35.607Z,0.92
2023-02-05T11:17:19.304Z,1.42
2023-02-05T11:19:59.248Z,1.49
2023-02-05T11:22:31.240Z,1.64
2023-02-05T11:25:16.871Z,1.77
2023-02-05T11:27:56.120Z,1.82
2023-02-05T11:30:56.150Z,1.74
2023-02-05T11:33:22.239Z,1.51
2023-02-05T11:36:03.981Z,1.34
2023-02-05T11:38:44.811Z,1.33
2023-02-05T11:41:14.896Z,1.55
2023-02-05T11:43:52.746Z,1.67
2023-02-05T11:46:22.864Z,1.75
2023-02-05T11:49:00.968Z,1.65
2023-02-05T11:51:29.294Z,1.62
2023-02-05T11:53:59.167Z,1.35
2023-02-05T11:56:26.682Z,1.35
2023-02-05T11:59:01.772Z,1.42
2023-02-05T12:01:33.872Z,1.05
2023-02-05T12:04:06.764Z,1.40
2023-02-05T12:06:43.761Z,1.22
2023-02-05T12:09:16.561Z,1.26
2023-02-05T12:12:03.514Z,0.79
2023-02-05T12:14:56.112Z,0.92
2023-02-05T12:17:43.051Z,1.15
2023-02-05T12:20:09.911Z,1.27
2023-02-05T12:23:14.750Z,1.18
2023-02-05T12:25:58.696Z,0.94
2023-02-05T12:28:47.150Z,0.94
2023-02-05T12:31:20.711Z,0.98
2023-02-05T12:34:13.141Z,0.98
2023-02-05T12:36:49.259Z,1.00
2023-02-05T12:39:59.826Z,0.95
2023-02-05T12:42:30.755Z,0.97
2023-02-05T12:45:19.227Z,0.69
2023-02-05T12:47:50.904Z,0.69
2023-02-05T12:50:20.322Z,0.73
2023-02-05T12:53:05.688Z,0.70
2023-02-05T12:55:48.266Z,0.63
2023-02-05T12:58:17.434Z,0.57
2023-02-05T13:00:59.947Z,0.53
2023-02-05T13:03:38.834Z,0.56
2023-02-05T13:06:18.763Z,0.53
2023-02-05T13:09:13.560Z,0.41
2023-02-05T13:12:05.121Z,0.36
2023-02-05T13:14:41.518Z,0.29
2023-02-05T13:17:34.536Z,0.19
2023-02-05T13:20:04.439Z,0.19
2023-02-05T13:22:54.716Z,0.48
2023-02-05T13:26:02.680Z,0.23
2023-02-05T13:28:40.977Z,0.12
2023-02-05T13:34:04.510Z,0.29
2023-02-05T13:50:08.614Z,0.30
2023-02-05T13:52:53.409Z,0.10
2023-02-05T13:55:53.861Z,0.21
2023-02-05T13:58:29.214Z,0.09
2023-02-05T14:01:05.916Z,-0.02
2023-02-05T14:03:39.435Z,-0.14
2023-02-05T14:06:17.171Z,-0.09
2023-02-05T14:08:44.510Z,0.03
2023-02-05T14:11:11.665Z,-0.12
2023-02-05T14:13:38.604Z,-0.25
2023-02-05T14:16:23.971Z,-0.17
2023-02-05T14:19:11.007Z,-0.10
2023-02-05T14:21:46.580Z,-0.08
2023-02-05T14:24:27.552Z,-0.10
2023-02-05T14:27:00.427Z,-0.26
2023-02-05T14:29:45.310Z,-0.21
2023-02-05T14:32:33.287Z,-0.22
2023-02-05T14:35:00.979Z,-0.22
2023-02-05T14:37:49.785Z,-0.36
2023-02-05T14:40:31.607Z,-0.56
2023-02-05T14:43:14.510Z,-0.66
2023-02-05T14:45:47.888Z,-0.75
2023-02-05T14:48:37.417Z,-0.83
2023-02-05T14:51:25.909Z,-0.74
2023-02-05T14:53:57.913Z,-0.73
2023-02-05T14:56:33.987Z,-0.64
2023-02-05T14:59:17.853Z,-0.71
2023-02-05T15:01:46.514Z,-0.68
2023-02-05T15:04:26.727Z,-0.65
2023-02-05T15:06:54.854Z,-0.80
2023-02-05T15:09:40.445Z,-0.89
2023-02-05T15:12:34.330Z,-0.75
2023-02-05T15:15:27.834Z,-0.96
2023-02-05T15:17:58.225Z,-1.08
2023-02-05T15:23:19.595Z,-1.19
2023-02-05T15:25:55.289Z,-1.29
2023-02-05T15:28:32.555Z,-1.31
2023-02-05T15:31:01.937Z,-1.34
2023-02-05T15:33:38.854Z,-1.37
2023-02-05T15:36:15.690Z,-1.43
2023-02-05T15:51:46.006Z,-1.48
2023-02-05T15:54:19.709Z,-1.61
2023-02-05T15:56:50.903Z,-1.72
2023-02-05T15:59:24.704Z,-1.89
2023-02-05T16:02:02.015Z,-1.94
2023-02-05T16:04:32.252Z,-1.99
2023-02-05T16:07:00.118Z,-1.94
2023-02-05T16:09:29.510Z,-2.02
2023-02-05T16:11:56.289Z,-2.06
2023-02-05T16:14:25.540Z,-2.20
2023-02-05T16:17:10.818Z,-2.30
2023-02-05T16:19:46.693Z,-2.42
2023-02-05T16:25:57.154Z,-2.48
2023-02-05T16:28:32.608Z,-2.58
2023-02-05T16:31:00.952Z,-2.61
2023-02-05T16:33:42.011Z,-2.65
2023-02-05T16:37:42.776Z,-2.70
2023-02-05T16:40:12.246Z,-2.76
2023-02-05T16:42:46.235Z,-2.73
2023-02-05T16:45:12.894Z,-2.76
2023-02-05T16:47:39.712Z,-2.78
2023-02-05T16:50:41.242Z,-2.85
2023-02-05T17:00:39.036Z,-2.97
2023-02-05T17:03:16.453Z,-3.04
2023-02-05T17:17:58.231Z,-3.46
2023-02-05T17:20:28.712Z,-3.43
2023-02-05T17:22:58.660Z,-3.49
2023-02-05T17:35:35.371Z,-3.64
2023-02-05T17:40:42.118Z,-3.73
2023-02-05T17:43:08.840Z,-3.77
2023-02-05T17:45:39.528Z,-3.73
2023-02-05T17:48:10.142Z,-3.60
2023-02-05T17:53:03.209Z,-3.65
2023-02-05T17:55:30.631Z,-3.65
2023-02-05T17:57:57.256Z,-3.59
2023-02-05T18:00:27.221Z,-3.64
2023-02-05T18:02:54.556Z,-3.72
2023-02-05T18:05:23.200Z,-3.84
2023-02-05T18:10:35.050Z,-3.96
2023-02-05T18:14:25.335Z,-3.89
2023-02-05T18:19:30.535Z,-3.87
2023-02-05T18:21:57.228Z,-3.93
2023-02-05T18:24:24.028Z,-3.89
2023-02-05T18:26:52.962Z,-3.95
2023-02-05T18:29:21.636Z,-4.01
2023-02-05T18:31:48.853Z,-3.98
2023-02-05T18:34:15.683Z,-4.04
2023-02-05T18:36:42.357Z,-4.12
2023-02-05T18:39:09.886Z,-4.11
2023-02-05T18:41:38.246Z,-4.14
2023-02-05T18:45:30.839Z,-4.23
2023-02-05T18:50:27.922Z,-4.29
2023-02-05T18:55:35.575Z,-4.45
2023-02-05T18:58:03.644Z,-4.45
2023-02-05T19:00:30.495Z,-4.44
2023-02-05T19:02:57.529Z,-4.47
2023-02-05T19:05:24.257Z,-4.59
2023-02-05T19:07:50.902Z,-4.63
2023-02-05T19:10:18.391Z,-4.63
2023-02-05T19:12:45.086Z,-4.55
2023-02-05T19:15:11.693Z,-4.55
2023-02-05T19:17:38.321Z,-4.54
2023-02-05T19:20:06.020Z,-4.52
2023-02-05T19:22:32.677Z,-4.58
2023-02-05T19:24:59.392Z,-4.74
2023-02-05T19:27:26.009Z,-4.78
2023-02-05T19:29:52.679Z,-4.74
2023-02-05T19:32:19.338Z,-4.78
2023-02-05T19:34:46.812Z,-4.77
2023-02-05T19:37:13.487Z,-4.75
2023-02-05T19:39:40.213Z,-4.67
2023-02-05T19:42:07.257Z,-4.67
2023-02-05T19:44:34.054Z,-4.63
2023-02-05T19:47:00.717Z,-4.67
2023-02-05T19:49:27.492Z,-4.71
2023-02-05T19:54:30.564Z,-4.70
2023-02-05T19:56:57.494Z,-4.75
2023-02-05T19:59:24.701Z,-4.82
2023-02-05T20:01:51.349Z,-4.82
2023-02-05T20:04:22.401Z,-4.82
2023-02-05T20:09:28.650Z,-4.86
2023-02-05T20:12:43.614Z,-4.87
2023-02-05T20:17:51.159Z,-4.94
2023-02-05T20:20:32.648Z,-4.98
2023-02-05T20:23:00.123Z,-5.02
2023-02-05T20:25:26.818Z,-5.01
2023-02-05T20:27:53.484Z,-5.03
2023-02-05T20:30:38.845Z,-4.91
2023-02-05T20:33:05.564Z,-5.02
2023-02-05T20:35:35.320Z,-5.06
2023-02-05T20:38:01.958Z,-5.09
2023-02-05T20:40:28.604Z,-5.12
2023-02-05T20:42:55.242Z,-5.16
2023-02-05T20:45:21.876Z,-5.21
2023-02-05T20:47:48.577Z,-5.21
2023-02-05T20:50:15.343Z,-5.19
2023-02-05T20:52:42.031Z,-5.30
2023-02-05T20:55:08.661Z,-5.34
2023-02-05T20:57:35.416Z,-5.34
2023-02-05T21:00:02.093Z,-5.38
2023-02-05T21:07:29.792Z,-5.49
2023-02-05T21:09:59.570Z,-5.44
2023-02-05T21:12:31.085Z,-5.36
2023-02-05T21:14:58.123Z,-5.41
2023-02-05T21:17:24.742Z,-5.44
2023-02-05T21:19:51.361Z,-5.41
2023-02-05T21:22:18.042Z,-5.39
2023-02-05T21:24:44.719Z,-5.50
2023-02-05T21:27:11.392Z,-5.51
2023-02-05T21:29:38.043Z,-5.49
2023-02-05T21:32:04.909Z,-5.45
2023-02-05T21:34:31.556Z,-5.50
2023-02-05T21:36:58.194Z,-5.74
2023-02-05T21:39:25.787Z,-5.81
2023-02-05T21:41:53.418Z,-5.89
2023-02-05T21:44:20.332Z,-5.95
2023-02-05T21:46:47.107Z,-5.95
2023-02-05T21:49:13.729Z,-5.95
2023-02-05T21:51:42.495Z,-5.93
2023-02-05T21:54:10.906Z,-5.89
2023-02-05T21:56:39.888Z,-5.85
2023-02-05T21:59:06.750Z,-5.81
2023-02-05T22:01:35.758Z,-5.81
2023-02-05T22:04:05.096Z,-5.79
2023-02-05T22:06:33.676Z,-5.75
2023-02-05T22:09:01.566Z,-5.80
2023-02-05T22:11:28.714Z,-5.83
2023-02-05T22:13:56.359Z,-5.82
2023-02-05T22:16:26.194Z,-5.82
2023-02-05T22:18:53.321Z,-5.79
2023-02-05T22:21:21.383Z,-5.81
2023-02-05T22:23:50.074Z,-5.83
2023-02-05T22:26:18.519Z,-5.83
2023-02-05T22:28:45.759Z,-5.89
2023-02-05T22:31:14.802Z,-5.94
2023-02-05T22:33:43.600Z,-5.95
2023-02-05T22:36:12.021Z,-5.98
2023-02-05T22:38:40.702Z,-5.96
2023-02-05T22:41:15.846Z,-6.00
2023-02-05T22:43:42.747Z,-6.00
2023-02-05T22:46:30.964Z,-6.06
2023-02-05T22:51:40.412Z,-6.07
2023-02-05T22:54:10.034Z,-6.11
2023-02-05T22:58:45.295Z,-6.21
2023-02-05T23:01:13.463Z,-6.26
2023-02-05T23:03:40.209Z,-6.32
2023-02-05T23:06:15.833Z,-6.34
2023-02-05T23:08:42.690Z,-6.31
2023-02-05T23:11:12.999Z,-6.36
2023-02-05T23:13:40.726Z,-6.38
2023-02-05T23:16:08.591Z,-6.38
2023-02-05T23:18:35.907Z,-6.43
2023-02-05T23:21:07.286Z,-6.41
2023-02-05T23:23:33.914Z,-6.42
2023-02-05T23:26:08.225Z,-6.46
2023-02-05T23:28:35.799Z,-6.50
2023-02-05T23:31:03.064Z,-6.50
2023-02-05T23:33:29.867Z,-6.54
2023-02-05T23:35:56.591Z,-6.58
2023-02-05T23:38:25.173Z,-6.63
2023-02-05T23:40:53.224Z,-6.67
2023-02-05T23:43:21.655Z,-6.68
2023-02-05T23:45:49.851Z,-6.70
2023-02-05T23:48:16.791Z,-6.69
2023-02-05T23:50:43.862Z,-6.69
2023-02-05T23:53:11.442Z,-6.72
2023-02-05T23:55:40.208Z,-6.68
2023-02-05T23:58:07.866Z,-6.75
